Terminal Aerodrome Forecast
Issued by NWS

Home | Current Version | Previous Version | Text Only | Print | Product List | Glossary On
Versions: 1 2 3 4 5 6 7 8 9 10 11 12 13 14 15 16
000
FTUS41 KRNK 121729
TAFBCB
TAF
KBCB 121729Z 1218/1318 29015G27KT P6SM VCSH BKN050
     FM122000 30014G29KT P6SM VCSH BKN060
      TEMPO 1220/1222 2SM -SHSN OVC040
     FM122200 30014G27KT P6SM VCSH BKN050
     FM122300 30014G25KT P6SM BKN045
     FM130900 29013G22KT P6SM FEW250=

USA.gov is the U.S. government's official web portal to all federal, state and local government web resources and services.